TimeMST,TemperatureF,Dew PointF,Humidity,Sea Level PressureIn,VisibilityMPH,Wind Direction,Wind SpeedMPH,Gust SpeedMPH,PrecipitationIn,Events,Conditions,WindDirDegrees,DateUTC
12:53 AM,10.0,7.0,87,29.85,10.0,NW,3.5,-,N/A,,Overcast,310,2012-12-15 07:53:00
1:53 AM,7.0,3.9,87,29.88,10.0,NW,3.5,-,N/A,,Scattered Clouds,310,2012-12-15 08:53:00
2:53 AM,9.0,5.0,84,29.88,10.0,NNW,8.1,-,N/A,,Mostly Cloudy,340,2012-12-15 09:53:00
3:53 AM,8.1,5.0,87,29.89,10.0,North,-9999.0,-,N/A,,Scattered Clouds,0,2012-12-15 10:53:00
4:53 AM,9.0,6.1,88,29.91,10.0,North,-9999.0,-,N/A,,Mostly Cloudy,0,2012-12-15 11:53:00
5:53 AM,10.0,7.0,87,29.92,10.0,North,-9999.0,-,N/A,,Scattered Clouds,0,2012-12-15 12:53:00
6:53 AM,6.1,1.9,83,29.93,10.0,North,-9999.0,-,N/A,,Clear,0,2012-12-15 13:53:00
3:53 PM,18.0,16.0,92,29.90,0.2,NNW,4.6,-,N/A,Fog,Light Freezing Fog,340,2012-12-15 22:53:00
4:53 PM,17.1,15.1,92,29.89,0.2,Calm,Calm,-,N/A,Fog,Light Freezing Fog,0,2012-12-15 23:53:00
5:53 PM,12.9,12.0,96,29.88,0.2,Calm,Calm,-,N/A,Fog,Light Freezing Fog,0,2012-12-16 00:53:00
6:13 PM,10.4,8.6,92,29.74,0.8,ESE,3.5,-,N/A,,Overcast,110,2012-12-16 01:13:00
6:27 PM,10.4,6.8,85,29.74,1.2,East,4.6,-,N/A,,Overcast,90,2012-12-16 01:27:00
6:43 PM,10.4,8.6,92,29.75,0.2,SE,6.9,-,N/A,Fog,Light Freezing Fog,130,2012-12-16 01:43:00
6:53 PM,10.9,9.0,92,29.90,0.2,ESE,6.9,-,N/A,Fog,Light Freezing Fog,120,2012-12-16 01:53:00
7:53 PM,12.9,10.9,92,29.90,0.2,East,4.6,-,N/A,Fog,Light Freezing Fog,80,2012-12-16 02:53:00
8:44 PM,10.4,6.8,85,29.73,1.0,East,5.8,-,N/A,,Mist,90,2012-12-16 03:44:00
8:53 PM,10.9,8.1,88,29.88,0.5,East,5.8,-,N/A,Fog,Light Freezing Fog,90,2012-12-16 03:53:00
9:07 PM,10.4,8.6,92,29.73,0.2,East,5.8,-,N/A,Fog,Light Freezing Fog,100,2012-12-16 04:07:00
9:16 PM,10.4,8.6,92,29.73,0.8,East,5.8,-,N/A,,Mist,100,2012-12-16 04:16:00
9:53 PM,10.0,8.1,92,29.87,0.2,ESE,6.9,-,0.00,Fog,Light Freezing Fog,110,2012-12-16 04:53:00
10:08 PM,10.4,6.8,85,29.71,0.8,East,6.9,-,N/A,Snow,Light Snow,100,2012-12-16 05:08:00
10:53 PM,9.0,6.1,88,29.84,0.8,ESE,11.5,-,0.00,Snow,Light Snow,120,2012-12-16 05:53:00
11:16 PM,8.6,6.8,92,29.69,1.5,East,9.2,-,0.00,Snow,Light Snow,100,2012-12-16 06:16:00
11:19 PM,8.6,6.8,92,29.69,3.0,East,11.5,-,0.00,Snow,Light Snow,100,2012-12-16 06:19:00
11:53 PM,8.1,5.0,87,29.82,9.0,East,9.2,-,0.00,Snow,Light Snow,100,2012-12-16 06:53:00